sensor_id;sensor_type;location;lat;lon;timestamp;temperature;humidity
7598;DHT22;3840;59.32098800;18.06423600;2024-01-06T00:01:41;-10.00;99.90
7598;DHT22;3840;59.32098800;18.06423600;2024-01-06T00:04:06;-10.00;99.90
7598;DHT22;3840;59.32098800;18.06423600;2024-01-06T00:06:32;-10.10;99.90
7598;DHT22;3840;59.32098800;18.06423600;2024-01-06T00:08:58;-10.10;99.90
7598;DHT22;3840;59.32098800;18.06423600;2024-01-06T00:11:24;-10.20;99.90
7598;DHT22;3840;59.32098800;18.06423600;2024-01-06T00:13:50;-10.20;99.90
7598;DHT22;3840;59.32098800;18.06423600;2024-01-06T00:16:19;-10.00;99.90
7598;DHT22;3840;59.32098800;18.06423600;2024-01-06T00:18:46;-10.30;99.90
7598;DHT22;3840;59.32098800;18.06423600;2024-01-06T00:21:11;-10.30;99.90
7598;DHT22;3840;59.32098800;18.06423600;2024-01-06T00:23:37;-10.30;99.90
7598;DHT22;3840;59.32098800;18.06423600;2024-01-06T00:26:04;-10.30;99.90
7598;DHT22;3840;59.32098800;18.06423600;2024-01-06T00:28:29;-10.30;99.90
7598;DHT22;3840;59.32098800;18.06423600;2024-01-06T00:30:55;-10.30;99.90
7598;DHT22;3840;59.32098800;18.06423600;2024-01-06T00:33:21;-10.30;99.90
7598;DHT22;3840;59.32098800;18.06423600;2024-01-06T00:35:47;-10.30;99.90
7598;DHT22;3840;59.32098800;18.06423600;2024-01-06T00:38:12;-10.30;99.90
7598;DHT22;3840;59.32098800;18.06423600;2024-01-06T00:40:38;-10.30;99.90
7598;DHT22;3840;59.32098800;18.06423600;2024-01-06T00:43:04;-10.30;99.90
7598;DHT22;3840;59.32098800;18.06423600;2024-01-06T00:45:29;-10.30;99.90
7598;DHT22;3840;59.32098800;18.06423600;2024-01-06T00:47:56;-10.30;99.90
7598;DHT22;3840;59.32098800;18.06423600;2024-01-06T00:50:22;-10.40;99.90
7598;DHT22;3840;59.32098800;18.06423600;2024-01-06T00:52:48;-10.40;99.90
7598;DHT22;3840;59.32098800;18.06423600;2024-01-06T00:55:18;-10.50;99.90
7598;DHT22;3840;59.32098800;18.06423600;2024-01-06T00:57:43;-10.40;99.90
7598;DHT22;3840;59.32098800;18.06423600;2024-01-06T01:00:09;-10.40;99.90
7598;DHT22;3840;59.32098800;18.06423600;2024-01-06T01:02:35;-10.30;99.90
7598;DHT22;3840;59.32098800;18.06423600;2024-01-06T01:05:01;-10.40;99.90
7598;DHT22;3840;59.32098800;18.06423600;2024-01-06T01:07:27;-10.40;99.90
7598;DHT22;3840;59.32098800;18.06423600;2024-01-06T01:09:53;-10.50;99.90
7598;DHT22;3840;59.32098800;18.06423600;2024-01-06T01:12:19;-10.50;99.90
7598;DHT22;3840;59.32098800;18.06423600;2024-01-06T01:14:44;-10.30;99.90
7598;DHT22;3840;59.32098800;18.06423600;2024-01-06T01:17:10;-10.50;99.90
7598;DHT22;3840;59.32098800;18.06423600;2024-01-06T01:19:35;-10.40;99.90
7598;DHT22;3840;59.32098800;18.06423600;2024-01-06T01:22:01;-10.50;99.90
7598;DHT22;3840;59.32098800;18.06423600;2024-01-06T01:24:27;-10.40;99.90
7598;DHT22;3840;59.32098800;18.06423600;2024-01-06T01:26:53;-10.40;99.90
7598;DHT22;3840;59.32098800;18.06423600;2024-01-06T01:29:18;-10.40;99.90
7598;DHT22;3840;59.32098800;18.06423600;2024-01-06T01:31:46;-10.50;99.90
7598;DHT22;3840;59.32098800;18.06423600;2024-01-06T01:34:12;-10.50;99.90
7598;DHT22;3840;59.32098800;18.06423600;2024-01-06T01:36:37;-10.50;99.90
7598;DHT22;3840;59.32098800;18.06423600;2024-01-06T01:39:03;-10.50;99.90
7598;DHT22;3840;59.32098800;18.06423600;2024-01-06T01:41:29;-10.50;99.90
7598;DHT22;3840;59.32098800;18.06423600;2024-01-06T01:43:54;-10.50;99.90
7598;DHT22;3840;59.32098800;18.06423600;2024-01-06T01:46:30;-10.50;99.90
7598;DHT22;3840;59.32098800;18.06423600;2024-01-06T01:48:57;-10.40;99.90
7598;DHT22;3840;59.32098800;18.06423600;2024-01-06T01:51:26;-10.40;99.90
7598;DHT22;3840;59.32098800;18.06423600;2024-01-06T01:53:52;-10.40;99.90
7598;DHT22;3840;59.32098800;18.06423600;2024-01-06T01:56:19;-10.10;99.90
7598;DHT22;3840;59.32098800;18.06423600;2024-01-06T01:58:46;-10.30;99.90
7598;DHT22;3840;59.32098800;18.06423600;2024-01-06T02:01:14;-10.30;99.90
7598;DHT22;3840;59.32098800;18.06423600;2024-01-06T02:03:43;-10.30;99.90
7598;DHT22;3840;59.32098800;18.06423600;2024-01-06T02:06:10;-10.30;99.90
7598;DHT22;3840;59.32098800;18.06423600;2024-01-06T02:08:36;-10.30;99.90
7598;DHT22;3840;59.32098800;18.06423600;2024-01-06T02:11:02;-10.20;99.90
7598;DHT22;3840;59.32098800;18.06423600;2024-01-06T02:13:36;-10.20;99.90
7598;DHT22;3840;59.32098800;18.06423600;2024-01-06T02:16:05;-10.10;99.90
7598;DHT22;3840;59.32098800;18.06423600;2024-01-06T02:18:31;-10.00;99.90
7598;DHT22;3840;59.32098800;18.06423600;2024-01-06T02:20:59;-10.00;99.90
7598;DHT22;3840;59.32098800;18.06423600;2024-01-06T02:23:25;-10.00;99.90
7598;DHT22;3840;59.32098800;18.06423600;2024-01-06T02:25:51;-10.00;99.90
7598;DHT22;3840;59.32098800;18.06423600;2024-01-06T02:28:16;-10.00;99.90
7598;DHT22;3840;59.32098800;18.06423600;2024-01-06T02:30:43;-10.10;99.90
7598;DHT22;3840;59.32098800;18.06423600;2024-01-06T02:33:08;-10.00;99.90
7598;DHT22;3840;59.32098800;18.06423600;2024-01-06T02:35:34;-10.00;99.90
7598;DHT22;3840;59.32098800;18.06423600;2024-01-06T02:38:00;-10.00;99.90
7598;DHT22;3840;59.32098800;18.06423600;2024-01-06T02:40:26;-9.90;99.90
7598;DHT22;3840;59.32098800;18.06423600;2024-01-06T02:42:52;-10.00;99.90
7598;DHT22;3840;59.32098800;18.06423600;2024-01-06T02:45:17;-9.80;99.90
7598;DHT22;3840;59.32098800;18.06423600;2024-01-06T02:47:43;-9.90;99.90
7598;DHT22;3840;59.32098800;18.06423600;2024-01-06T02:50:09;-10.00;99.90
7598;DHT22;3840;59.32098800;18.06423600;2024-01-06T02:52:34;-9.60;99.90
7598;DHT22;3840;59.32098800;18.06423600;2024-01-06T02:55:00;-9.70;99.90
7598;DHT22;3840;59.32098800;18.06423600;2024-01-06T02:57:30;-10.00;99.90
7598;DHT22;3840;59.32098800;18.06423600;2024-01-06T02:59:57;-9.90;99.90
7598;DHT22;3840;59.32098800;18.06423600;2024-01-06T03:02:23;-9.90;99.90
7598;DHT22;3840;59.32098800;18.06423600;2024-01-06T03:04:48;-9.90;99.90
7598;DHT22;3840;59.32098800;18.06423600;2024-01-06T03:07:14;-9.90;99.90
7598;DHT22;3840;59.32098800;18.06423600;2024-01-06T03:09:40;-9.80;99.90
7598;DHT22;3840;59.32098800;18.06423600;2024-01-06T03:12:06;-9.80;99.90
7598;DHT22;3840;59.32098800;18.06423600;2024-01-06T03:14:34;-9.80;99.90
7598;DHT22;3840;59.32098800;18.06423600;2024-01-06T03:17:00;-9.80;99.90
7598;DHT22;3840;59.32098800;18.06423600;2024-01-06T03:19:26;-9.80;99.90
7598;DHT22;3840;59.32098800;18.06423600;2024-01-06T03:21:53;-9.80;99.90
7598;DHT22;3840;59.32098800;18.06423600;2024-01-06T03:24:19;-9.80;99.90
7598;DHT22;3840;59.32098800;18.06423600;2024-01-06T03:26:45;-9.70;99.90
7598;DHT22;3840;59.32098800;18.06423600;2024-01-06T03:29:11;-9.80;99.90
7598;DHT22;3840;59.32098800;18.06423600;2024-01-06T03:31:37;-9.70;99.90
7598;DHT22;3840;59.32098800;18.06423600;2024-01-06T03:34:03;-9.80;99.90
7598;DHT22;3840;59.32098800;18.06423600;2024-01-06T03:36:29;-9.10;99.90
7598;DHT22;3840;59.32098800;18.06423600;2024-01-06T03:38:54;-9.70;99.90
7598;DHT22;3840;59.32098800;18.06423600;2024-01-06T03:41:20;-9.70;99.90
7598;DHT22;3840;59.32098800;18.06423600;2024-01-06T03:43:45;-9.70;99.90
7598;DHT22;3840;59.32098800;18.06423600;2024-01-06T03:46:11;-9.60;99.90
7598;DHT22;3840;59.32098800;18.06423600;2024-01-06T03:48:37;-9.60;99.90
7598;DHT22;3840;59.32098800;18.06423600;2024-01-06T03:51:03;-9.60;99.90
7598;DHT22;3840;59.32098800;18.06423600;2024-01-06T03:53:28;-9.60;99.90
7598;DHT22;3840;59.32098800;18.06423600;2024-01-06T03:55:54;-9.50;99.90
7598;DHT22;3840;59.32098800;18.06423600;2024-01-06T03:58:20;-9.50;99.90
7598;DHT22;3840;59.32098800;18.06423600;2024-01-06T04:00:45;-9.40;99.90
7598;DHT22;3840;59.32098800;18.06423600;2024-01-06T04:03:11;-9.40;99.90
7598;DHT22;3840;59.32098800;18.06423600;2024-01-06T04:05:36;-9.40;99.90
7598;DHT22;3840;59.32098800;18.06423600;2024-01-06T04:08:02;-9.40;99.90
7598;DHT22;3840;59.32098800;18.06423600;2024-01-06T04:10:28;-9.30;99.90
7598;DHT22;3840;59.32098800;18.06423600;2024-01-06T04:12:54;-9.30;99.90
7598;DHT22;3840;59.32098800;18.06423600;2024-01-06T04:15:19;-9.30;99.90
7598;DHT22;3840;59.32098800;18.06423600;2024-01-06T04:17:48;-9.30;99.90
7598;DHT22;3840;59.32098800;18.06423600;2024-01-06T04:20:14;-9.30;99.90
7598;DHT22;3840;59.32098800;18.06423600;2024-01-06T04:22:40;-9.30;99.90
7598;DHT22;3840;59.32098800;18.06423600;2024-01-06T04:25:06;-9.30;99.90
7598;DHT22;3840;59.32098800;18.06423600;2024-01-06T04:27:31;-9.30;99.90
7598;DHT22;3840;59.32098800;18.06423600;2024-01-06T04:29:59;-9.40;99.90
7598;DHT22;3840;59.32098800;18.06423600;2024-01-06T04:32:25;-9.40;99.90
7598;DHT22;3840;59.32098800;18.06423600;2024-01-06T04:34:50;-9.40;99.90
7598;DHT22;3840;59.32098800;18.06423600;2024-01-06T04:37:16;-8.60;99.90
7598;DHT22;3840;59.32098800;18.06423600;2024-01-06T04:39:42;-9.50;99.90
7598;DHT22;3840;59.32098800;18.06423600;2024-01-06T04:42:07;-9.50;99.90
7598;DHT22;3840;59.32098800;18.06423600;2024-01-06T04:44:33;-9.50;99.90
7598;DHT22;3840;59.32098800;18.06423600;2024-01-06T04:46:59;-9.50;99.90
7598;DHT22;3840;59.32098800;18.06423600;2024-01-06T04:49:24;-9.40;99.90
7598;DHT22;3840;59.32098800;18.06423600;2024-01-06T04:51:50;-9.40;99.90
7598;DHT22;3840;59.32098800;18.06423600;2024-01-06T04:54:16;-9.40;99.90
7598;DHT22;3840;59.32098800;18.06423600;2024-01-06T04:56:41;-9.30;99.90
7598;DHT22;3840;59.32098800;18.06423600;2024-01-06T04:59:07;-9.30;99.90
7598;DHT22;3840;59.32098800;18.06423600;2024-01-06T05:01:33;-9.40;99.90
7598;DHT22;3840;59.32098800;18.06423600;2024-01-06T05:03:58;-9.40;99.90
7598;DHT22;3840;59.32098800;18.06423600;2024-01-06T05:06:24;-9.40;99.90
7598;DHT22;3840;59.32098800;18.06423600;2024-01-06T05:08:50;-9.40;99.90
7598;DHT22;3840;59.32098800;18.06423600;2024-01-06T05:11:16;-9.40;99.90
7598;DHT22;3840;59.32098800;18.06423600;2024-01-06T05:13:42;-9.60;99.90
7598;DHT22;3840;59.32098800;18.06423600;2024-01-06T05:16:08;-9.60;99.90
7598;DHT22;3840;59.32098800;18.06423600;2024-01-06T05:18:34;-9.60;99.90
7598;DHT22;3840;59.32098800;18.06423600;2024-01-06T05:21:00;-9.60;99.90
7598;DHT22;3840;59.32098800;18.06423600;2024-01-06T05:23:26;-9.60;99.90
7598;DHT22;3840;59.32098800;18.06423600;2024-01-06T05:25:52;-9.60;99.90
7598;DHT22;3840;59.32098800;18.06423600;2024-01-06T05:28:18;-9.60;99.90
7598;DHT22;3840;59.32098800;18.06423600;2024-01-06T05:30:43;-9.50;99.90
7598;DHT22;3840;59.32098800;18.06423600;2024-01-06T05:33:10;-9.50;99.90
7598;DHT22;3840;59.32098800;18.06423600;2024-01-06T05:35:35;-9.50;99.90
7598;DHT22;3840;59.32098800;18.06423600;2024-01-06T05:38:01;-9.50;99.90
7598;DHT22;3840;59.32098800;18.06423600;2024-01-06T05:40:26;-9.50;99.90
7598;DHT22;3840;59.32098800;18.06423600;2024-01-06T05:42:52;-9.50;99.90
7598;DHT22;3840;59.32098800;18.06423600;2024-01-06T05:45:21;-9.40;99.90
7598;DHT22;3840;59.32098800;18.06423600;2024-01-06T05:47:47;-9.40;99.90
7598;DHT22;3840;59.32098800;18.06423600;2024-01-06T05:50:15;-9.50;99.90
7598;DHT22;3840;59.32098800;18.06423600;2024-01-06T05:52:41;-9.50;99.90
7598;DHT22;3840;59.32098800;18.06423600;2024-01-06T05:55:07;-9.50;99.90
7598;DHT22;3840;59.32098800;18.06423600;2024-01-06T05:57:33;-9.50;99.90
7598;DHT22;3840;59.32098800;18.06423600;2024-01-06T05:59:59;-9.40;99.90
7598;DHT22;3840;59.32098800;18.06423600;2024-01-06T06:02:25;-9.50;99.90
7598;DHT22;3840;59.32098800;18.06423600;2024-01-06T06:04:51;-9.50;99.90
7598;DHT22;3840;59.32098800;18.06423600;2024-01-06T06:07:18;-9.50;99.90
7598;DHT22;3840;59.32098800;18.06423600;2024-01-06T06:09:44;-9.40;99.90
7598;DHT22;3840;59.32098800;18.06423600;2024-01-06T06:12:13;-9.50;99.90
7598;DHT22;3840;59.32098800;18.06423600;2024-01-06T06:14:38;-9.40;99.90
7598;DHT22;3840;59.32098800;18.06423600;2024-01-06T06:17:04;-9.40;99.90
7598;DHT22;3840;59.32098800;18.06423600;2024-01-06T06:19:30;-9.50;99.90
7598;DHT22;3840;59.32098800;18.06423600;2024-01-06T06:21:56;-9.50;99.90
7598;DHT22;3840;59.32098800;18.06423600;2024-01-06T06:24:22;-9.50;99.90
7598;DHT22;3840;59.32098800;18.06423600;2024-01-06T06:26:48;-9.50;99.90
7598;DHT22;3840;59.32098800;18.06423600;2024-01-06T06:29:13;-9.40;99.90
7598;DHT22;3840;59.32098800;18.06423600;2024-01-06T06:31:39;-9.40;99.90
7598;DHT22;3840;59.32098800;18.06423600;2024-01-06T06:34:05;-9.50;99.90
7598;DHT22;3840;59.32098800;18.06423600;2024-01-06T06:36:30;-9.40;99.90
7598;DHT22;3840;59.32098800;18.06423600;2024-01-06T06:38:56;-9.40;99.90
7598;DHT22;3840;59.32098800;18.06423600;2024-01-06T06:41:24;-9.40;99.90
7598;DHT22;3840;59.32098800;18.06423600;2024-01-06T06:43:50;-9.40;99.90
7598;DHT22;3840;59.32098800;18.06423600;2024-01-06T06:46:16;-9.30;99.90
7598;DHT22;3840;59.32098800;18.06423600;2024-01-06T06:48:42;-9.30;99.90
7598;DHT22;3840;59.32098800;18.06423600;2024-01-06T06:51:07;-8.40;99.90
7598;DHT22;3840;59.32098800;18.06423600;2024-01-06T06:53:33;-9.20;99.90
7598;DHT22;3840;59.32098800;18.06423600;2024-01-06T06:55:59;-9.20;99.90
7598;DHT22;3840;59.32098800;18.06423600;2024-01-06T06:58:24;-8.30;99.90
7598;DHT22;3840;59.32098800;18.06423600;2024-01-06T07:00:50;-9.00;99.90
7598;DHT22;3840;59.32098800;18.06423600;2024-01-06T07:03:16;-9.00;99.90
7598;DHT22;3840;59.32098800;18.06423600;2024-01-06T07:05:42;-9.00;99.90
7598;DHT22;3840;59.32098800;18.06423600;2024-01-06T07:08:07;-9.00;99.90
7598;DHT22;3840;59.32098800;18.06423600;2024-01-06T07:10:33;-9.00;99.90
7598;DHT22;3840;59.32098800;18.06423600;2024-01-06T07:12:59;-9.00;99.90
7598;DHT22;3840;59.32098800;18.06423600;2024-01-06T07:15:24;-8.90;99.90
7598;DHT22;3840;59.32098800;18.06423600;2024-01-06T07:17:50;-8.90;99.90
7598;DHT22;3840;59.32098800;18.06423600;2024-01-06T07:20:15;-9.00;99.90
7598;DHT22;3840;59.32098800;18.06423600;2024-01-06T07:22:41;-8.90;99.90
7598;DHT22;3840;59.32098800;18.06423600;2024-01-06T07:25:07;-8.90;99.90
7598;DHT22;3840;59.32098800;18.06423600;2024-01-06T07:27:33;-8.90;99.90
7598;DHT22;3840;59.32098800;18.06423600;2024-01-06T07:29:59;-8.90;99.90
7598;DHT22;3840;59.32098800;18.06423600;2024-01-06T07:32:24;-8.90;99.90
7598;DHT22;3840;59.32098800;18.06423600;2024-01-06T07:34:50;-9.00;99.90
7598;DHT22;3840;59.32098800;18.06423600;2024-01-06T07:37:16;-9.00;99.90
7598;DHT22;3840;59.32098800;18.06423600;2024-01-06T07:39:42;-9.00;99.90
7598;DHT22;3840;59.32098800;18.06423600;2024-01-06T07:42:08;-8.90;99.90
7598;DHT22;3840;59.32098800;18.06423600;2024-01-06T07:44:34;-9.00;99.90
7598;DHT22;3840;59.32098800;18.06423600;2024-01-06T07:47:00;-9.00;99.90
7598;DHT22;3840;59.32098800;18.06423600;2024-01-06T07:49:27;-8.40;99.90
7598;DHT22;3840;59.32098800;18.06423600;2024-01-06T07:51:53;-8.90;99.90
7598;DHT22;3840;59.32098800;18.06423600;2024-01-06T07:54:19;-9.10;99.90
7598;DHT22;3840;59.32098800;18.06423600;2024-01-06T07:56:44;-9.10;99.90
7598;DHT22;3840;59.32098800;18.06423600;2024-01-06T07:59:10;-9.10;99.90
7598;DHT22;3840;59.32098800;18.06423600;2024-01-06T08:01:36;-9.10;99.90
7598;DHT22;3840;59.32098800;18.06423600;2024-01-06T08:04:02;-9.10;99.90
7598;DHT22;3840;59.32098800;18.06423600;2024-01-06T08:06:28;-9.10;99.90
7598;DHT22;3840;59.32098800;18.06423600;2024-01-06T08:08:53;-9.10;99.90
7598;DHT22;3840;59.32098800;18.06423600;2024-01-06T08:11:20;-9.20;99.90
7598;DHT22;3840;59.32098800;18.06423600;2024-01-06T08:13:46;-8.90;99.90
7598;DHT22;3840;59.32098800;18.06423600;2024-01-06T08:16:12;-9.00;99.90
7598;DHT22;3840;59.32098800;18.06423600;2024-01-06T08:18:38;-9.20;99.90
7598;DHT22;3840;59.32098800;18.06423600;2024-01-06T08:21:04;-8.30;99.90
7598;DHT22;3840;59.32098800;18.06423600;2024-01-06T08:23:29;-9.10;99.90
7598;DHT22;3840;59.32098800;18.06423600;2024-01-06T08:25:55;-8.50;99.90
7598;DHT22;3840;59.32098800;18.06423600;2024-01-06T08:28:21;-9.00;99.90
7598;DHT22;3840;59.32098800;18.06423600;2024-01-06T08:30:49;-9.00;99.90
7598;DHT22;3840;59.32098800;18.06423600;2024-01-06T08:33:14;-9.10;99.90
7598;DHT22;3840;59.32098800;18.06423600;2024-01-06T08:35:40;-9.10;99.90
7598;DHT22;3840;59.32098800;18.06423600;2024-01-06T08:38:07;-9.10;99.90
7598;DHT22;3840;59.32098800;18.06423600;2024-01-06T08:40:33;-9.10;99.90
7598;DHT22;3840;59.32098800;18.06423600;2024-01-06T08:42:59;-9.10;99.90
7598;DHT22;3840;59.32098800;18.06423600;2024-01-06T08:45:25;-9.10;99.90
7598;DHT22;3840;59.32098800;18.06423600;2024-01-06T08:47:50;-9.10;99.90
7598;DHT22;3840;59.32098800;18.06423600;2024-01-06T08:50:16;-9.10;99.90
7598;DHT22;3840;59.32098800;18.06423600;2024-01-06T08:52:42;-9.10;99.90
7598;DHT22;3840;59.32098800;18.06423600;2024-01-06T08:55:08;-8.30;99.90
7598;DHT22;3840;59.32098800;18.06423600;2024-01-06T08:57:33;-9.20;99.90
7598;DHT22;3840;59.32098800;18.06423600;2024-01-06T08:59:59;-9.10;99.90
7598;DHT22;3840;59.32098800;18.06423600;2024-01-06T09:02:25;-9.10;99.90
7598;DHT22;3840;59.32098800;18.06423600;2024-01-06T09:04:50;-9.30;99.90
7598;DHT22;3840;59.32098800;18.06423600;2024-01-06T09:07:16;-9.10;99.90
7598;DHT22;3840;59.32098800;18.06423600;2024-01-06T09:09:43;-9.10;99.90
7598;DHT22;3840;59.32098800;18.06423600;2024-01-06T09:12:09;-9.00;99.90
7598;DHT22;3840;59.32098800;18.06423600;2024-01-06T09:14:35;-9.00;99.90
7598;DHT22;3840;59.32098800;18.06423600;2024-01-06T09:17:01;-9.00;99.90
7598;DHT22;3840;59.32098800;18.06423600;2024-01-06T09:19:26;-8.90;99.90
7598;DHT22;3840;59.32098800;18.06423600;2024-01-06T09:21:54;-9.00;99.90
7598;DHT22;3840;59.32098800;18.06423600;2024-01-06T09:24:20;-9.00;99.90
7598;DHT22;3840;59.32098800;18.06423600;2024-01-06T09:26:46;-8.50;99.90
7598;DHT22;3840;59.32098800;18.06423600;2024-01-06T09:29:12;-9.00;99.90
7598;DHT22;3840;59.32098800;18.06423600;2024-01-06T09:31:38;-9.00;99.90
7598;DHT22;3840;59.32098800;18.06423600;2024-01-06T09:34:03;-9.00;99.90
7598;DHT22;3840;59.32098800;18.06423600;2024-01-06T09:36:31;-8.90;99.90
7598;DHT22;3840;59.32098800;18.06423600;2024-01-06T09:38:57;-8.30;99.90
7598;DHT22;3840;59.32098800;18.06423600;2024-01-06T09:41:23;-9.20;99.90
7598;DHT22;3840;59.32098800;18.06423600;2024-01-06T09:43:50;-9.20;99.90
7598;DHT22;3840;59.32098800;18.06423600;2024-01-06T09:46:25;-9.20;99.90
7598;DHT22;3840;59.32098800;18.06423600;2024-01-06T09:48:55;-9.10;99.90
7598;DHT22;3840;59.32098800;18.06423600;2024-01-06T09:51:23;-9.10;99.90
7598;DHT22;3840;59.32098800;18.06423600;2024-01-06T09:53:49;-9.20;99.90
7598;DHT22;3840;59.32098800;18.06423600;2024-01-06T09:56:18;-9.10;99.90
7598;DHT22;3840;59.32098800;18.06423600;2024-01-06T09:58:44;-9.10;99.90
7598;DHT22;3840;59.32098800;18.06423600;2024-01-06T10:01:11;-9.10;99.90
7598;DHT22;3840;59.32098800;18.06423600;2024-01-06T10:03:37;-9.00;99.90
7598;DHT22;3840;59.32098800;18.06423600;2024-01-06T10:06:03;-8.90;99.90
7598;DHT22;3840;59.32098800;18.06423600;2024-01-06T10:08:32;-8.80;99.90
7598;DHT22;3840;59.32098800;18.06423600;2024-01-06T10:11:00;-8.80;99.90
7598;DHT22;3840;59.32098800;18.06423600;2024-01-06T10:13:25;-8.90;99.90
7598;DHT22;3840;59.32098800;18.06423600;2024-01-06T10:15:51;-8.80;99.90
7598;DHT22;3840;59.32098800;18.06423600;2024-01-06T10:18:18;-9.10;99.90
7598;DHT22;3840;59.32098800;18.06423600;2024-01-06T10:20:47;-9.10;99.90
7598;DHT22;3840;59.32098800;18.06423600;2024-01-06T10:23:13;-9.10;99.90
7598;DHT22;3840;59.32098800;18.06423600;2024-01-06T10:25:38;-9.20;99.90
7598;DHT22;3840;59.32098800;18.06423600;2024-01-06T10:28:06;-9.20;99.90
7598;DHT22;3840;59.32098800;18.06423600;2024-01-06T10:30:31;-9.20;99.90
7598;DHT22;3840;59.32098800;18.06423600;2024-01-06T10:32:57;-9.30;99.90
7598;DHT22;3840;59.32098800;18.06423600;2024-01-06T10:35:25;-9.20;99.90
7598;DHT22;3840;59.32098800;18.06423600;2024-01-06T10:37:52;-9.20;99.90
7598;DHT22;3840;59.32098800;18.06423600;2024-01-06T10:40:17;-9.30;99.90
7598;DHT22;3840;59.32098800;18.06423600;2024-01-06T10:42:44;-9.30;99.90
7598;DHT22;3840;59.32098800;18.06423600;2024-01-06T10:45:12;-9.20;99.90
7598;DHT22;3840;59.32098800;18.06423600;2024-01-06T10:47:39;-9.20;99.90
7598;DHT22;3840;59.32098800;18.06423600;2024-01-06T10:50:06;-9.20;99.90
7598;DHT22;3840;59.32098800;18.06423600;2024-01-06T10:52:33;-9.20;99.90
7598;DHT22;3840;59.32098800;18.06423600;2024-01-06T10:55:01;-9.30;99.90
7598;DHT22;3840;59.32098800;18.06423600;2024-01-06T10:57:30;-9.30;99.90
7598;DHT22;3840;59.32098800;18.06423600;2024-01-06T10:59:59;-9.40;99.90
7598;DHT22;3840;59.32098800;18.06423600;2024-01-06T11:02:26;-9.50;99.90
7598;DHT22;3840;59.32098800;18.06423600;2024-01-06T11:04:52;-9.50;99.90
7598;DHT22;3840;59.32098800;18.06423600;2024-01-06T11:07:20;-9.60;99.90
7598;DHT22;3840;59.32098800;18.06423600;2024-01-06T11:10:04;-9.50;99.90
7598;DHT22;3840;59.32098800;18.06423600;2024-01-06T11:12:31;-9.50;99.90
7598;DHT22;3840;59.32098800;18.06423600;2024-01-06T11:14:57;-9.50;99.90
7598;DHT22;3840;59.32098800;18.06423600;2024-01-06T11:17:57;-9.50;99.90
7598;DHT22;3840;59.32098800;18.06423600;2024-01-06T11:20:24;-9.50;99.90
7598;DHT22;3840;59.32098800;18.06423600;2024-01-06T11:22:52;-9.50;99.90
7598;DHT22;3840;59.32098800;18.06423600;2024-01-06T11:25:20;-9.50;99.90
7598;DHT22;3840;59.32098800;18.06423600;2024-01-06T11:27:48;-9.50;99.90
7598;DHT22;3840;59.32098800;18.06423600;2024-01-06T11:30:22;-9.50;99.90
7598;DHT22;3840;59.32098800;18.06423600;2024-01-06T11:32:53;-9.60;99.90
7598;DHT22;3840;59.32098800;18.06423600;2024-01-06T11:35:21;-9.60;99.90
7598;DHT22;3840;59.32098800;18.06423600;2024-01-06T11:43:06;-9.60;99.90
7598;DHT22;3840;59.32098800;18.06423600;2024-01-06T11:45:33;-9.60;99.90
7598;DHT22;3840;59.32098800;18.06423600;2024-01-06T11:48:01;-9.60;99.90
7598;DHT22;3840;59.32098800;18.06423600;2024-01-06T11:50:29;-9.60;99.90
7598;DHT22;3840;59.32098800;18.06423600;2024-01-06T11:52:56;-9.60;99.90
7598;DHT22;3840;59.32098800;18.06423600;2024-01-06T11:55:22;-9.70;99.90
7598;DHT22;3840;59.32098800;18.06423600;2024-01-06T11:57:48;-9.60;99.90
7598;DHT22;3840;59.32098800;18.06423600;2024-01-06T12:00:16;-9.60;99.90
7598;DHT22;3840;59.32098800;18.06423600;2024-01-06T12:02:42;-9.50;99.90
7598;DHT22;3840;59.32098800;18.06423600;2024-01-06T12:05:15;-9.50;99.90
7598;DHT22;3840;59.32098800;18.06423600;2024-01-06T12:07:44;-9.60;99.90
7598;DHT22;3840;59.32098800;18.06423600;2024-01-06T12:10:20;-9.50;99.90
7598;DHT22;3840;59.32098800;18.06423600;2024-01-06T12:13:04;-9.50;99.90
7598;DHT22;3840;59.32098800;18.06423600;2024-01-06T12:15:31;-9.50;99.90
7598;DHT22;3840;59.32098800;18.06423600;2024-01-06T12:17:57;-9.50;99.90
7598;DHT22;3840;59.32098800;18.06423600;2024-01-06T12:20:25;-9.50;99.90
7598;DHT22;3840;59.32098800;18.06423600;2024-01-06T12:22:52;-9.40;99.90
7598;DHT22;3840;59.32098800;18.06423600;2024-01-06T12:25:18;-9.40;99.90
7598;DHT22;3840;59.32098800;18.06423600;2024-01-06T12:27:44;-9.40;99.90
7598;DHT22;3840;59.32098800;18.06423600;2024-01-06T12:30:14;-9.40;99.90
7598;DHT22;3840;59.32098800;18.06423600;2024-01-06T12:32:48;-9.40;99.90
7598;DHT22;3840;59.32098800;18.06423600;2024-01-06T12:35:20;-9.40;99.90
7598;DHT22;3840;59.32098800;18.06423600;2024-01-06T12:37:46;-9.30;99.90
7598;DHT22;3840;59.32098800;18.06423600;2024-01-06T12:40:13;-9.30;99.90
7598;DHT22;3840;59.32098800;18.06423600;2024-01-06T12:42:40;-9.30;99.90
7598;DHT22;3840;59.32098800;18.06423600;2024-01-06T12:45:06;-9.30;99.90
7598;DHT22;3840;59.32098800;18.06423600;2024-01-06T12:47:32;-9.30;99.90
7598;DHT22;3840;59.32098800;18.06423600;2024-01-06T12:49:58;-9.30;99.90
7598;DHT22;3840;59.32098800;18.06423600;2024-01-06T12:52:24;-9.30;99.90
7598;DHT22;3840;59.32098800;18.06423600;2024-01-06T12:54:49;-9.30;99.90
7598;DHT22;3840;59.32098800;18.06423600;2024-01-06T12:57:18;-9.30;99.90
7598;DHT22;3840;59.32098800;18.06423600;2024-01-06T12:59:43;-9.40;99.90
7598;DHT22;3840;59.32098800;18.06423600;2024-01-06T13:02:09;-9.40;99.90
7598;DHT22;3840;59.32098800;18.06423600;2024-01-06T13:04:35;-9.50;99.90
7598;DHT22;3840;59.32098800;18.06423600;2024-01-06T13:07:01;-9.50;99.90
7598;DHT22;3840;59.32098800;18.06423600;2024-01-06T13:09:28;-9.40;99.90
7598;DHT22;3840;59.32098800;18.06423600;2024-01-06T13:11:54;-9.40;99.90
7598;DHT22;3840;59.32098800;18.06423600;2024-01-06T13:14:21;-8.80;99.90
7598;DHT22;3840;59.32098800;18.06423600;2024-01-06T13:16:47;-9.50;99.90
7598;DHT22;3840;59.32098800;18.06423600;2024-01-06T13:19:13;-9.60;99.90
7598;DHT22;3840;59.32098800;18.06423600;2024-01-06T13:21:38;-9.70;99.90
7598;DHT22;3840;59.32098800;18.06423600;2024-01-06T13:24:06;-9.70;99.90
7598;DHT22;3840;59.32098800;18.06423600;2024-01-06T13:26:32;-9.60;99.90
7598;DHT22;3840;59.32098800;18.06423600;2024-01-06T13:28:57;-9.50;99.90
7598;DHT22;3840;59.32098800;18.06423600;2024-01-06T13:31:23;-9.50;99.90
7598;DHT22;3840;59.32098800;18.06423600;2024-01-06T13:33:49;-9.50;99.90